createdAt,value
2018-06-18T00:00:05.438Z,7.57
2018-06-18T00:06:00.435Z,7.61
2018-06-18T00:11:55.443Z,7.55
2018-06-18T00:17:50.431Z,7.86
2018-06-18T00:23:45.463Z,7.89
2018-06-18T00:29:40.477Z,8.33
2018-06-18T00:35:35.483Z,7.83
2018-06-18T00:41:30.509Z,8.9
2018-06-18T00:47:25.498Z,9.09
2018-06-18T00:53:20.496Z,8.78
2018-06-18T00:59:15.470Z,9.1
2018-06-18T01:05:10.506Z,7.69
2018-06-18T01:11:05.472Z,8.29
2018-06-18T01:17:00.589Z,8.66
2018-06-18T01:22:55.492Z,8.83
2018-06-18T01:28:50.513Z,8.22
2018-06-18T01:34:45.521Z,7.64
2018-06-18T01:40:40.479Z,8.9
2018-06-18T01:46:35.559Z,8.51
2018-06-18T01:52:30.482Z,8.3
2018-06-18T01:58:25.527Z,8.94
2018-06-18T02:04:20.490Z,8.7
2018-06-18T02:10:15.515Z,8.48
2018-06-18T02:16:10.585Z,7.88
2018-06-18T02:22:05.483Z,8.16
2018-06-18T02:28:00.569Z,8.28
2018-06-18T02:33:55.590Z,8.57
2018-06-18T02:39:50.513Z,8.58
2018-06-18T02:45:45.527Z,7.98
2018-06-18T02:51:40.557Z,8.33
2018-06-18T02:57:35.592Z,8.08
2018-06-18T03:03:30.586Z,7.68
2018-06-18T03:09:25.522Z,8.39
2018-06-18T03:15:20.531Z,7.84
2018-06-18T03:21:15.535Z,8.39
2018-06-18T03:27:10.586Z,7.93
2018-06-18T03:33:05.588Z,8.27
2018-06-18T03:39:00.560Z,7.78
2018-06-18T03:44:55.600Z,8.54
2018-06-18T03:50:50.635Z,8.16
2018-06-18T03:56:45.665Z,7.96
2018-06-18T04:02:40.572Z,7.58
2018-06-18T04:08:35.661Z,8.02
2018-06-18T04:14:30.578Z,7.64
2018-06-18T04:20:25.607Z,7.65
2018-06-18T04:26:20.663Z,8.35
2018-06-18T04:32:15.629Z,7.49
2018-06-18T04:38:10.626Z,7.69
2018-06-18T04:44:05.685Z,7.46
2018-06-18T04:50:00.655Z,8.4
2018-06-18T04:55:55.635Z,9.52
2018-06-18T05:01:50.680Z,9.04
2018-06-18T05:07:45.681Z,9.8
2018-06-18T05:13:40.642Z,10
2018-06-18T05:19:35.643Z,9.44
2018-06-18T05:25:30.654Z,9.46
2018-06-18T05:31:25.646Z,9.01
2018-06-18T05:37:20.616Z,9.13
2018-06-18T05:43:15.634Z,8.98
2018-06-18T05:49:10.675Z,8.5
2018-06-18T05:55:05.633Z,8.7
2018-06-18T06:01:00.708Z,8.74
2018-06-18T06:06:55.814Z,7.57
2018-06-18T06:12:50.789Z,8.04
2018-06-18T06:18:45.651Z,8.69
2018-06-18T06:24:40.744Z,8.07
2018-06-18T06:30:35.669Z,7.64
2018-06-18T06:36:30.652Z,7.21
2018-06-18T06:42:25.710Z,7.91
2018-06-18T06:48:20.762Z,7.5
2018-06-18T06:54:15.694Z,7.5
2018-06-18T07:00:10.734Z,7.08
2018-06-18T07:06:05.725Z,6.47
2018-06-18T07:12:00.730Z,5.78
2018-06-18T07:17:55.757Z,5.28
2018-06-18T07:23:50.729Z,5.65
2018-06-18T07:29:45.704Z,5.3
2018-06-18T07:35:40.738Z,3.54
2018-06-18T07:41:35.727Z,3.27
2018-06-18T07:47:30.771Z,3.37
2018-06-18T07:53:25.741Z,3.56
2018-06-18T07:59:20.788Z,3.23
2018-06-18T08:05:15.732Z,3.38
2018-06-18T08:11:10.783Z,3.91
2018-06-18T08:17:05.765Z,4.03
2018-06-18T08:23:00.786Z,4.88
2018-06-18T08:28:55.745Z,4.69
2018-06-18T08:34:50.760Z,4.94
2018-06-18T08:40:45.880Z,4.77
2018-06-18T08:46:40.817Z,4.98
2018-06-18T08:52:35.837Z,5.46
2018-06-18T08:58:30.831Z,4.77
2018-06-18T09:04:25.787Z,5.19
2018-06-18T09:10:20.833Z,5.05
2018-06-18T09:16:15.831Z,5.03
2018-06-18T09:22:10.815Z,4.8
2018-06-18T09:28:05.840Z,5.33
2018-06-18T09:34:00.897Z,5.52
2018-06-18T09:39:55.817Z,5.14
2018-06-18T09:45:50.867Z,5.05
2018-06-18T09:51:45.845Z,4.85
2018-06-18T09:57:40.804Z,5.85
2018-06-18T10:03:35.863Z,5.35
2018-06-18T10:09:30.914Z,5.27
2018-06-18T10:15:25.844Z,5.34
2018-06-18T10:21:20.890Z,5.63
2018-06-18T10:27:15.852Z,5.42
2018-06-18T10:33:10.904Z,5.17
2018-06-18T10:39:05.887Z,5.33
2018-06-18T10:45:00.849Z,5.6
2018-06-18T10:50:55.907Z,5.57
2018-06-18T10:56:50.921Z,5.64
2018-06-18T11:02:45.912Z,5.55
2018-06-18T11:08:40.872Z,5.23
2018-06-18T11:14:35.879Z,5.22
2018-06-18T11:20:30.902Z,4.93
2018-06-18T11:26:26.059Z,5.44
2018-06-18T11:32:21.046Z,4.72
2018-06-18T11:38:15.943Z,5.16
2018-06-18T11:44:10.922Z,4.26
2018-06-18T11:50:05.939Z,4.37
2018-06-18T11:56:00.908Z,4.15
2018-06-18T12:01:56.033Z,4.48
2018-06-18T12:07:50.938Z,4.38
2018-06-18T12:13:45.922Z,4.09
2018-06-18T12:19:40.921Z,4.3
2018-06-18T12:25:36.019Z,4.53
2018-06-18T12:31:30.952Z,4.1
2018-06-18T12:37:26.023Z,4.42
2018-06-18T12:43:21.006Z,4.63
2018-06-18T12:49:15.938Z,4.94
2018-06-18T12:55:10.956Z,5
2018-06-18T13:01:06.007Z,4.47
2018-06-18T13:07:01.060Z,5
2018-06-18T13:12:56.000Z,4.41
2018-06-18T13:18:50.972Z,4.94
2018-06-18T13:24:46.034Z,5.14
2018-06-18T13:30:40.981Z,4.83
2018-06-18T13:36:36.017Z,4.81
2018-06-18T13:42:31.048Z,4.35
2018-06-18T13:48:26.051Z,4.33
2018-06-18T13:54:21.050Z,3.91
2018-06-18T14:00:16.015Z,3.59
2018-06-18T14:06:11.107Z,3.45
2018-06-18T14:12:06.067Z,3.58
2018-06-18T14:18:01.021Z,3.69
2018-06-18T14:23:56.033Z,3.72
2018-06-18T14:29:51.025Z,3.4
2018-06-18T14:35:46.058Z,3.56
2018-06-18T14:41:41.050Z,3.41
2018-06-18T14:47:36.170Z,3.44
2018-06-18T14:53:31.089Z,3.77
2018-06-18T14:59:26.068Z,3.68
2018-06-18T15:05:21.113Z,3.56
2018-06-18T15:11:16.173Z,3.8
2018-06-18T15:17:11.080Z,3.76
2018-06-18T15:23:06.140Z,4.02
2018-06-18T15:29:01.171Z,3.94
2018-06-18T15:34:56.162Z,3.74
2018-06-18T15:40:51.149Z,4
2018-06-18T15:46:46.128Z,3.79
2018-06-18T15:52:41.107Z,4.15
2018-06-18T15:58:36.099Z,4.12
2018-06-18T16:04:31.136Z,4.44
2018-06-18T16:10:26.148Z,4.14
2018-06-18T16:16:21.113Z,4.57
2018-06-18T16:22:16.148Z,4.16
2018-06-18T16:28:11.161Z,4.15
2018-06-18T16:34:06.128Z,4.53
2018-06-18T16:40:01.190Z,4.51
2018-06-18T16:45:56.162Z,4.78
2018-06-18T16:51:51.129Z,5.05
2018-06-18T16:57:46.151Z,5
2018-06-18T17:03:41.212Z,4.77
2018-06-18T17:09:36.267Z,4.86
2018-06-18T17:15:31.148Z,5.16
2018-06-18T17:21:26.212Z,5.26
2018-06-18T17:27:21.204Z,5.07
2018-06-18T17:33:16.189Z,5.3
2018-06-18T17:39:11.212Z,5.3
2018-06-18T17:45:06.224Z,4.75
2018-06-18T17:51:01.256Z,5.13
2018-06-18T17:56:56.226Z,5.49
2018-06-18T18:02:51.252Z,5.49
2018-06-18T18:08:46.235Z,5.26
2018-06-18T18:14:41.231Z,5.45
2018-06-18T18:20:36.195Z,5.93
2018-06-18T18:26:31.243Z,5.33
2018-06-18T18:32:26.279Z,6.15
2018-06-18T18:38:21.292Z,5.53
2018-06-18T18:44:16.344Z,5.83
2018-06-18T18:50:11.221Z,5.87
2018-06-18T18:56:06.256Z,5.97
2018-06-18T19:02:01.266Z,5.84
2018-06-18T19:07:56.271Z,6.01
2018-06-18T19:13:51.255Z,5.96
2018-06-18T19:19:46.266Z,5.87
2018-06-18T19:25:41.310Z,6.06
2018-06-18T19:31:36.418Z,6.17
2018-06-18T19:37:31.353Z,6.3
2018-06-18T19:43:26.298Z,6.04
2018-06-18T19:49:21.330Z,5.83
2018-06-18T19:55:16.267Z,6.38
2018-06-18T20:01:11.313Z,5.77
2018-06-18T20:07:06.333Z,5.97
2018-06-18T20:13:01.301Z,6.21
2018-06-18T20:18:56.352Z,5.54
2018-06-18T20:24:51.323Z,4.93
2018-06-18T20:30:46.304Z,5.55
2018-06-18T20:36:41.300Z,5.36
2018-06-18T20:42:36.339Z,5.58
2018-06-18T20:48:31.330Z,5.9
2018-06-18T20:54:26.329Z,5.6
2018-06-18T21:00:21.357Z,6.13
2018-06-18T21:06:16.339Z,6.65
2018-06-18T21:12:11.386Z,5.75
2018-06-18T21:18:06.383Z,6.13
2018-06-18T21:24:01.382Z,6.64
2018-06-18T21:29:56.324Z,6.23
2018-06-18T21:35:51.348Z,6.23
2018-06-18T21:41:46.391Z,6.92
2018-06-18T21:47:41.345Z,6.85
2018-06-18T21:53:36.404Z,7.17
2018-06-18T21:59:31.401Z,6.17
2018-06-18T22:05:26.413Z,7.01
2018-06-18T22:11:21.382Z,6.74
2018-06-18T22:17:16.428Z,6.49
2018-06-18T22:23:11.373Z,6.85
2018-06-18T22:29:06.410Z,6.59
2018-06-18T22:35:01.382Z,6.53
2018-06-18T22:40:56.442Z,6.35
2018-06-18T22:46:51.400Z,6.53
2018-06-18T22:52:46.421Z,6.59
2018-06-18T22:58:41.402Z,6.76
2018-06-18T23:04:36.417Z,7.23
2018-06-18T23:10:31.441Z,6.87
2018-06-18T23:16:26.431Z,7.08
2018-06-18T23:22:21.448Z,7.31
2018-06-18T23:28:16.456Z,6.79
2018-06-18T23:34:11.472Z,7.51
2018-06-18T23:40:06.518Z,6.94
2018-06-18T23:46:01.440Z,7.49
2018-06-18T23:51:56.457Z,7.7
2018-06-18T23:57:51.480Z,7.6
